sensor_id;sensor_type;location;lat;lon;timestamp;P1;durP1;ratioP1;P2;durP2;ratioP2
12363;SDS011;6246;50.826;4.712;2023-05-10T00:00:08;1.10;;;1.10;;
12363;SDS011;6246;50.826;4.712;2023-05-10T00:02:34;1.03;;;1.03;;
12363;SDS011;6246;50.826;4.712;2023-05-10T00:05:01;1.13;;;1.13;;
12363;SDS011;6246;50.826;4.712;2023-05-10T00:07:27;1.13;;;1.00;;
12363;SDS011;6246;50.826;4.712;2023-05-10T00:09:53;1.87;;;1.30;;
12363;SDS011;6246;50.826;4.712;2023-05-10T00:12:19;1.27;;;1.17;;
12363;SDS011;6246;50.826;4.712;2023-05-10T00:14:45;1.40;;;1.30;;
12363;SDS011;6246;50.826;4.712;2023-05-10T00:17:11;1.40;;;1.30;;
12363;SDS011;6246;50.826;4.712;2023-05-10T00:19:37;1.20;;;1.10;;
12363;SDS011;6246;50.826;4.712;2023-05-10T00:22:03;1.43;;;1.33;;
12363;SDS011;6246;50.826;4.712;2023-05-10T00:24:29;1.10;;;1.00;;
12363;SDS011;6246;50.826;4.712;2023-05-10T00:26:55;1.23;;;1.23;;
12363;SDS011;6246;50.826;4.712;2023-05-10T00:29:21;1.17;;;1.17;;
12363;SDS011;6246;50.826;4.712;2023-05-10T00:31:47;1.33;;;1.23;;
12363;SDS011;6246;50.826;4.712;2023-05-10T00:34:13;1.50;;;1.33;;
12363;SDS011;6246;50.826;4.712;2023-05-10T00:36:39;1.00;;;0.90;;
12363;SDS011;6246;50.826;4.712;2023-05-10T00:39:05;1.40;;;1.30;;
12363;SDS011;6246;50.826;4.712;2023-05-10T00:41:31;1.17;;;1.17;;
12363;SDS011;6246;50.826;4.712;2023-05-10T00:43:57;1.23;;;1.13;;
12363;SDS011;6246;50.826;4.712;2023-05-10T00:46:24;1.67;;;1.40;;
12363;SDS011;6246;50.826;4.712;2023-05-10T00:48:50;1.03;;;1.03;;
12363;SDS011;6246;50.826;4.712;2023-05-10T00:51:16;1.27;;;1.17;;
12363;SDS011;6246;50.826;4.712;2023-05-10T00:53:43;1.10;;;1.00;;
12363;SDS011;6246;50.826;4.712;2023-05-10T00:56:09;1.40;;;1.30;;
12363;SDS011;6246;50.826;4.712;2023-05-10T00:58:35;1.20;;;1.17;;
12363;SDS011;6246;50.826;4.712;2023-05-10T01:01:01;1.60;;;1.50;;
12363;SDS011;6246;50.826;4.712;2023-05-10T01:03:28;2.23;;;1.60;;
12363;SDS011;6246;50.826;4.712;2023-05-10T01:05:54;1.40;;;1.40;;
12363;SDS011;6246;50.826;4.712;2023-05-10T01:08:20;2.50;;;1.53;;
12363;SDS011;6246;50.826;4.712;2023-05-10T01:10:46;1.80;;;1.70;;
12363;SDS011;6246;50.826;4.712;2023-05-10T01:13:14;1.60;;;1.50;;
12363;SDS011;6246;50.826;4.712;2023-05-10T01:15:43;1.70;;;1.60;;
12363;SDS011;6246;50.826;4.712;2023-05-10T01:18:09;1.57;;;1.47;;
12363;SDS011;6246;50.826;4.712;2023-05-10T01:20:38;1.00;;;1.00;;
12363;SDS011;6246;50.826;4.712;2023-05-10T01:26:13;2.23;;;1.53;;
12363;SDS011;6246;50.826;4.712;2023-05-10T01:28:49;1.40;;;1.30;;
12363;SDS011;6246;50.826;4.712;2023-05-10T01:31:39;2.77;;;1.77;;
12363;SDS011;6246;50.826;4.712;2023-05-10T01:34:09;1.30;;;1.20;;
12363;SDS011;6246;50.826;4.712;2023-05-10T01:36:47;1.47;;;1.33;;
12363;SDS011;6246;50.826;4.712;2023-05-10T01:39:19;2.30;;;1.70;;
12363;SDS011;6246;50.826;4.712;2023-05-10T01:46:39;1.60;;;1.50;;
12363;SDS011;6246;50.826;4.712;2023-05-10T01:49:09;2.33;;;2.10;;
12363;SDS011;6246;50.826;4.712;2023-05-10T01:51:39;1.53;;;1.43;;
12363;SDS011;6246;50.826;4.712;2023-05-10T01:54:06;1.60;;;1.50;;
12363;SDS011;6246;50.826;4.712;2023-05-10T01:56:33;1.77;;;1.67;;
12363;SDS011;6246;50.826;4.712;2023-05-10T01:59:00;1.53;;;1.43;;
12363;SDS011;6246;50.826;4.712;2023-05-10T02:01:30;1.63;;;1.53;;
12363;SDS011;6246;50.826;4.712;2023-05-10T02:03:56;1.80;;;1.63;;
12363;SDS011;6246;50.826;4.712;2023-05-10T02:06:23;2.20;;;1.60;;
12363;SDS011;6246;50.826;4.712;2023-05-10T02:08:50;1.70;;;1.60;;
12363;SDS011;6246;50.826;4.712;2023-05-10T02:11:17;1.37;;;1.33;;
12363;SDS011;6246;50.826;4.712;2023-05-10T02:13:44;1.63;;;1.50;;
12363;SDS011;6246;50.826;4.712;2023-05-10T02:16:12;1.70;;;1.60;;
12363;SDS011;6246;50.826;4.712;2023-05-10T02:18:38;1.90;;;1.70;;
12363;SDS011;6246;50.826;4.712;2023-05-10T02:21:05;3.00;;;2.17;;
12363;SDS011;6246;50.826;4.712;2023-05-10T02:23:31;1.93;;;1.73;;
12363;SDS011;6246;50.826;4.712;2023-05-10T02:25:57;2.40;;;2.20;;
12363;SDS011;6246;50.826;4.712;2023-05-10T02:28:24;1.93;;;1.80;;
12363;SDS011;6246;50.826;4.712;2023-05-10T02:30:51;1.70;;;1.60;;
12363;SDS011;6246;50.826;4.712;2023-05-10T02:33:19;1.50;;;1.40;;
12363;SDS011;6246;50.826;4.712;2023-05-10T02:35:45;2.00;;;1.90;;
12363;SDS011;6246;50.826;4.712;2023-05-10T02:38:12;2.20;;;2.00;;
12363;SDS011;6246;50.826;4.712;2023-05-10T02:40:39;1.97;;;1.87;;
12363;SDS011;6246;50.826;4.712;2023-05-10T02:43:07;2.03;;;1.93;;
12363;SDS011;6246;50.826;4.712;2023-05-10T02:45:34;1.73;;;1.60;;
12363;SDS011;6246;50.826;4.712;2023-05-10T02:48:01;2.30;;;2.10;;
12363;SDS011;6246;50.826;4.712;2023-05-10T02:50:27;2.03;;;1.83;;
12363;SDS011;6246;50.826;4.712;2023-05-10T02:52:55;1.93;;;1.83;;
12363;SDS011;6246;50.826;4.712;2023-05-10T02:55:26;1.90;;;1.77;;
12363;SDS011;6246;50.826;4.712;2023-05-10T02:57:58;3.67;;;2.20;;
12363;SDS011;6246;50.826;4.712;2023-05-10T03:00:25;2.40;;;2.13;;
12363;SDS011;6246;50.826;4.712;2023-05-10T03:02:51;2.20;;;1.90;;
12363;SDS011;6246;50.826;4.712;2023-05-10T03:05:17;2.13;;;1.93;;
12363;SDS011;6246;50.826;4.712;2023-05-10T03:07:43;2.50;;;2.30;;
12363;SDS011;6246;50.826;4.712;2023-05-10T03:10:10;2.23;;;2.13;;
12363;SDS011;6246;50.826;4.712;2023-05-10T03:15:13;2.10;;;1.90;;
12363;SDS011;6246;50.826;4.712;2023-05-10T03:17:47;1.63;;;1.53;;
12363;SDS011;6246;50.826;4.712;2023-05-10T03:20:29;2.30;;;2.10;;
12363;SDS011;6246;50.826;4.712;2023-05-10T03:23:02;2.10;;;1.90;;
12363;SDS011;6246;50.826;4.712;2023-05-10T03:25:28;2.07;;;1.97;;
12363;SDS011;6246;50.826;4.712;2023-05-10T03:27:55;2.40;;;2.20;;
12363;SDS011;6246;50.826;4.712;2023-05-10T03:30:22;2.27;;;2.13;;
12363;SDS011;6246;50.826;4.712;2023-05-10T03:32:48;1.80;;;1.70;;
12363;SDS011;6246;50.826;4.712;2023-05-10T03:35:14;1.70;;;1.60;;
12363;SDS011;6246;50.826;4.712;2023-05-10T03:37:40;2.20;;;2.00;;
12363;SDS011;6246;50.826;4.712;2023-05-10T03:40:06;2.40;;;2.20;;
12363;SDS011;6246;50.826;4.712;2023-05-10T03:42:32;2.37;;;2.13;;
12363;SDS011;6246;50.826;4.712;2023-05-10T03:44:58;3.20;;;2.30;;
12363;SDS011;6246;50.826;4.712;2023-05-10T03:47:24;1.93;;;1.83;;
12363;SDS011;6246;50.826;4.712;2023-05-10T03:49:50;2.03;;;1.93;;
12363;SDS011;6246;50.826;4.712;2023-05-10T03:52:16;2.00;;;1.90;;
12363;SDS011;6246;50.826;4.712;2023-05-10T03:54:43;2.27;;;2.03;;
12363;SDS011;6246;50.826;4.712;2023-05-10T03:57:09;3.37;;;2.03;;
12363;SDS011;6246;50.826;4.712;2023-05-10T03:59:36;1.90;;;1.80;;
12363;SDS011;6246;50.826;4.712;2023-05-10T04:02:02;2.03;;;1.87;;
12363;SDS011;6246;50.826;4.712;2023-05-10T04:04:28;2.13;;;1.93;;
12363;SDS011;6246;50.826;4.712;2023-05-10T04:06:54;2.40;;;2.20;;
12363;SDS011;6246;50.826;4.712;2023-05-10T04:09:20;2.43;;;2.23;;
12363;SDS011;6246;50.826;4.712;2023-05-10T04:11:46;2.97;;;2.40;;
12363;SDS011;6246;50.826;4.712;2023-05-10T04:14:12;2.03;;;1.50;;
12363;SDS011;6246;50.826;4.712;2023-05-10T04:16:38;2.37;;;2.17;;
12363;SDS011;6246;50.826;4.712;2023-05-10T04:19:04;2.00;;;1.80;;
12363;SDS011;6246;50.826;4.712;2023-05-10T04:21:30;2.43;;;2.23;;
12363;SDS011;6246;50.826;4.712;2023-05-10T04:23:56;2.60;;;2.40;;
12363;SDS011;6246;50.826;4.712;2023-05-10T04:26:23;2.50;;;2.30;;
12363;SDS011;6246;50.826;4.712;2023-05-10T04:28:50;2.30;;;2.10;;
12363;SDS011;6246;50.826;4.712;2023-05-10T04:31:16;2.10;;;1.93;;
12363;SDS011;6246;50.826;4.712;2023-05-10T04:33:42;2.07;;;1.97;;
12363;SDS011;6246;50.826;4.712;2023-05-10T04:36:08;2.63;;;2.07;;
12363;SDS011;6246;50.826;4.712;2023-05-10T04:38:34;2.50;;;2.30;;
12363;SDS011;6246;50.826;4.712;2023-05-10T04:41:04;2.03;;;1.93;;
12363;SDS011;6246;50.826;4.712;2023-05-10T04:43:30;1.80;;;1.70;;
12363;SDS011;6246;50.826;4.712;2023-05-10T04:45:56;2.40;;;2.20;;
12363;SDS011;6246;50.826;4.712;2023-05-10T04:48:22;2.10;;;2.00;;
12363;SDS011;6246;50.826;4.712;2023-05-10T04:50:48;2.00;;;1.90;;
12363;SDS011;6246;50.826;4.712;2023-05-10T04:53:14;2.93;;;2.10;;
12363;SDS011;6246;50.826;4.712;2023-05-10T04:55:41;2.10;;;2.00;;
12363;SDS011;6246;50.826;4.712;2023-05-10T04:58:07;2.03;;;1.93;;
12363;SDS011;6246;50.826;4.712;2023-05-10T05:00:33;2.30;;;2.20;;
12363;SDS011;6246;50.826;4.712;2023-05-10T05:02:59;2.50;;;2.30;;
12363;SDS011;6246;50.826;4.712;2023-05-10T05:05:25;2.03;;;1.90;;
12363;SDS011;6246;50.826;4.712;2023-05-10T05:07:51;2.27;;;2.07;;
12363;SDS011;6246;50.826;4.712;2023-05-10T05:10:17;1.90;;;1.80;;
12363;SDS011;6246;50.826;4.712;2023-05-10T05:12:43;3.17;;;2.47;;
12363;SDS011;6246;50.826;4.712;2023-05-10T05:15:10;1.80;;;1.70;;
12363;SDS011;6246;50.826;4.712;2023-05-10T05:17:36;2.83;;;2.60;;
12363;SDS011;6246;50.826;4.712;2023-05-10T05:20:02;2.37;;;2.17;;
12363;SDS011;6246;50.826;4.712;2023-05-10T05:22:28;1.90;;;1.80;;
12363;SDS011;6246;50.826;4.712;2023-05-10T05:24:54;2.60;;;2.40;;
12363;SDS011;6246;50.826;4.712;2023-05-10T05:27:21;2.17;;;2.07;;
12363;SDS011;6246;50.826;4.712;2023-05-10T05:29:49;2.10;;;2.00;;
12363;SDS011;6246;50.826;4.712;2023-05-10T05:32:16;2.27;;;2.07;;
12363;SDS011;6246;50.826;4.712;2023-05-10T05:34:44;2.20;;;2.00;;
12363;SDS011;6246;50.826;4.712;2023-05-10T05:37:13;2.30;;;2.20;;
12363;SDS011;6246;50.826;4.712;2023-05-10T05:39:39;2.63;;;2.30;;
12363;SDS011;6246;50.826;4.712;2023-05-10T05:42:06;2.97;;;2.67;;
12363;SDS011;6246;50.826;4.712;2023-05-10T05:44:32;2.43;;;2.23;;
12363;SDS011;6246;50.826;4.712;2023-05-10T05:46:58;2.47;;;2.20;;
12363;SDS011;6246;50.826;4.712;2023-05-10T05:49:24;2.07;;;1.97;;
12363;SDS011;6246;50.826;4.712;2023-05-10T05:51:50;2.57;;;2.37;;
12363;SDS011;6246;50.826;4.712;2023-05-10T05:54:16;2.37;;;2.23;;
12363;SDS011;6246;50.826;4.712;2023-05-10T05:56:42;4.73;;;2.83;;
12363;SDS011;6246;50.826;4.712;2023-05-10T05:59:09;2.80;;;2.60;;
12363;SDS011;6246;50.826;4.712;2023-05-10T06:01:35;2.30;;;2.10;;
12363;SDS011;6246;50.826;4.712;2023-05-10T06:04:01;2.60;;;2.40;;
12363;SDS011;6246;50.826;4.712;2023-05-10T06:06:27;2.83;;;2.50;;
12363;SDS011;6246;50.826;4.712;2023-05-10T06:08:53;2.43;;;2.30;;
12363;SDS011;6246;50.826;4.712;2023-05-10T06:11:19;2.30;;;2.17;;
12363;SDS011;6246;50.826;4.712;2023-05-10T06:13:48;3.30;;;3.00;;
12363;SDS011;6246;50.826;4.712;2023-05-10T06:16:15;3.30;;;3.00;;
12363;SDS011;6246;50.826;4.712;2023-05-10T06:18:41;3.13;;;2.83;;
12363;SDS011;6246;50.826;4.712;2023-05-10T06:21:07;2.90;;;2.70;;
12363;SDS011;6246;50.826;4.712;2023-05-10T06:23:33;2.30;;;2.13;;
12363;SDS011;6246;50.826;4.712;2023-05-10T06:25:59;2.63;;;2.43;;
12363;SDS011;6246;50.826;4.712;2023-05-10T06:28:25;2.77;;;2.57;;
12363;SDS011;6246;50.826;4.712;2023-05-10T06:30:51;2.80;;;2.50;;
12363;SDS011;6246;50.826;4.712;2023-05-10T06:33:17;3.07;;;2.87;;
12363;SDS011;6246;50.826;4.712;2023-05-10T06:35:43;3.10;;;2.63;;
12363;SDS011;6246;50.826;4.712;2023-05-10T06:38:09;3.00;;;2.77;;
12363;SDS011;6246;50.826;4.712;2023-05-10T06:40:35;2.47;;;2.30;;
12363;SDS011;6246;50.826;4.712;2023-05-10T06:43:01;2.73;;;2.53;;
12363;SDS011;6246;50.826;4.712;2023-05-10T06:45:27;2.70;;;2.50;;
12363;SDS011;6246;50.826;4.712;2023-05-10T06:47:54;2.63;;;2.43;;
12363;SDS011;6246;50.826;4.712;2023-05-10T06:50:20;2.40;;;2.23;;
12363;SDS011;6246;50.826;4.712;2023-05-10T06:52:46;2.93;;;2.40;;
12363;SDS011;6246;50.826;4.712;2023-05-10T06:55:12;2.50;;;2.30;;
12363;SDS011;6246;50.826;4.712;2023-05-10T06:57:38;2.60;;;2.40;;
12363;SDS011;6246;50.826;4.712;2023-05-10T07:00:04;2.60;;;2.40;;
12363;SDS011;6246;50.826;4.712;2023-05-10T07:02:30;2.33;;;2.20;;
12363;SDS011;6246;50.826;4.712;2023-05-10T07:04:56;2.40;;;2.20;;
12363;SDS011;6246;50.826;4.712;2023-05-10T07:07:22;2.77;;;2.43;;
12363;SDS011;6246;50.826;4.712;2023-05-10T07:09:48;3.27;;;2.17;;
12363;SDS011;6246;50.826;4.712;2023-05-10T07:12:15;2.70;;;2.50;;
12363;SDS011;6246;50.826;4.712;2023-05-10T07:14:41;2.73;;;2.30;;
12363;SDS011;6246;50.826;4.712;2023-05-10T07:17:07;2.13;;;2.00;;
12363;SDS011;6246;50.826;4.712;2023-05-10T07:19:33;1.90;;;1.80;;
12363;SDS011;6246;50.826;4.712;2023-05-10T07:21:59;1.70;;;1.60;;
12363;SDS011;6246;50.826;4.712;2023-05-10T07:24:25;1.70;;;1.60;;
12363;SDS011;6246;50.826;4.712;2023-05-10T07:26:51;2.00;;;1.90;;
12363;SDS011;6246;50.826;4.712;2023-05-10T07:29:17;1.80;;;1.70;;
12363;SDS011;6246;50.826;4.712;2023-05-10T07:31:44;1.83;;;1.73;;
12363;SDS011;6246;50.826;4.712;2023-05-10T07:34:10;1.93;;;1.83;;
12363;SDS011;6246;50.826;4.712;2023-05-10T07:36:36;1.63;;;1.53;;
12363;SDS011;6246;50.826;4.712;2023-05-10T07:39:02;1.50;;;1.40;;
12363;SDS011;6246;50.826;4.712;2023-05-10T07:41:28;1.57;;;1.40;;
12363;SDS011;6246;50.826;4.712;2023-05-10T07:43:54;1.80;;;1.70;;
12363;SDS011;6246;50.826;4.712;2023-05-10T07:46:20;1.60;;;1.50;;
12363;SDS011;6246;50.826;4.712;2023-05-10T07:48:46;1.40;;;1.30;;
12363;SDS011;6246;50.826;4.712;2023-05-10T07:51:12;1.80;;;1.70;;
12363;SDS011;6246;50.826;4.712;2023-05-10T07:53:38;1.60;;;1.50;;
12363;SDS011;6246;50.826;4.712;2023-05-10T07:56:21;1.50;;;1.40;;
12363;SDS011;6246;50.826;4.712;2023-05-10T07:58:47;1.30;;;1.30;;
12363;SDS011;6246;50.826;4.712;2023-05-10T08:01:13;1.43;;;1.37;;
12363;SDS011;6246;50.826;4.712;2023-05-10T08:03:39;1.53;;;1.43;;
12363;SDS011;6246;50.826;4.712;2023-05-10T08:06:05;1.57;;;1.47;;
12363;SDS011;6246;50.826;4.712;2023-05-10T08:08:31;1.53;;;1.40;;
12363;SDS011;6246;50.826;4.712;2023-05-10T08:10:57;1.40;;;1.30;;
12363;SDS011;6246;50.826;4.712;2023-05-10T08:13:23;1.47;;;1.37;;
12363;SDS011;6246;50.826;4.712;2023-05-10T08:15:49;1.30;;;1.23;;
12363;SDS011;6246;50.826;4.712;2023-05-10T08:18:18;1.40;;;1.40;;
12363;SDS011;6246;50.826;4.712;2023-05-10T08:20:44;1.80;;;1.70;;
12363;SDS011;6246;50.826;4.712;2023-05-10T08:23:10;1.47;;;1.23;;
12363;SDS011;6246;50.826;4.712;2023-05-10T08:25:36;1.50;;;1.40;;
12363;SDS011;6246;50.826;4.712;2023-05-10T08:28:02;2.00;;;1.10;;
12363;SDS011;6246;50.826;4.712;2023-05-10T08:30:28;1.33;;;1.23;;
12363;SDS011;6246;50.826;4.712;2023-05-10T08:32:54;1.57;;;1.47;;
12363;SDS011;6246;50.826;4.712;2023-05-10T08:35:20;0.93;;;0.93;;
12363;SDS011;6246;50.826;4.712;2023-05-10T08:37:46;1.90;;;1.37;;
12363;SDS011;6246;50.826;4.712;2023-05-10T08:40:12;1.50;;;1.40;;
12363;SDS011;6246;50.826;4.712;2023-05-10T08:42:40;1.40;;;1.30;;
12363;SDS011;6246;50.826;4.712;2023-05-10T08:45:09;1.07;;;1.07;;
12363;SDS011;6246;50.826;4.712;2023-05-10T08:47:36;1.20;;;1.13;;
12363;SDS011;6246;50.826;4.712;2023-05-10T08:50:03;1.37;;;1.27;;
12363;SDS011;6246;50.826;4.712;2023-05-10T08:52:30;1.43;;;1.33;;
12363;SDS011;6246;50.826;4.712;2023-05-10T08:54:56;1.10;;;1.10;;
12363;SDS011;6246;50.826;4.712;2023-05-10T08:57:22;1.00;;;1.00;;
12363;SDS011;6246;50.826;4.712;2023-05-10T08:59:48;1.20;;;1.10;;
12363;SDS011;6246;50.826;4.712;2023-05-10T09:02:14;1.37;;;1.27;;
12363;SDS011;6246;50.826;4.712;2023-05-10T09:04:40;1.67;;;1.57;;
12363;SDS011;6246;50.826;4.712;2023-05-10T09:07:07;1.17;;;1.07;;
12363;SDS011;6246;50.826;4.712;2023-05-10T09:09:33;1.60;;;1.50;;
12363;SDS011;6246;50.826;4.712;2023-05-10T09:11:59;1.40;;;1.30;;
12363;SDS011;6246;50.826;4.712;2023-05-10T09:14:25;1.10;;;1.10;;
12363;SDS011;6246;50.826;4.712;2023-05-10T09:16:52;1.10;;;1.10;;
12363;SDS011;6246;50.826;4.712;2023-05-10T09:19:19;1.13;;;1.07;;
12363;SDS011;6246;50.826;4.712;2023-05-10T09:21:45;0.80;;;0.80;;
12363;SDS011;6246;50.826;4.712;2023-05-10T09:24:11;1.10;;;0.83;;
12363;SDS011;6246;50.826;4.712;2023-05-10T09:26:45;0.87;;;0.87;;
12363;SDS011;6246;50.826;4.712;2023-05-10T09:29:12;1.07;;;1.00;;
12363;SDS011;6246;50.826;4.712;2023-05-10T09:31:42;1.03;;;1.03;;
12363;SDS011;6246;50.826;4.712;2023-05-10T09:34:11;1.07;;;1.07;;
12363;SDS011;6246;50.826;4.712;2023-05-10T09:36:48;0.97;;;0.97;;
12363;SDS011;6246;50.826;4.712;2023-05-10T09:39:15;2.03;;;1.60;;
12363;SDS011;6246;50.826;4.712;2023-05-10T09:41:41;1.03;;;1.03;;
12363;SDS011;6246;50.826;4.712;2023-05-10T09:44:08;2.83;;;1.20;;
12363;SDS011;6246;50.826;4.712;2023-05-10T09:46:37;1.20;;;1.10;;
12363;SDS011;6246;50.826;4.712;2023-05-10T09:49:03;0.80;;;0.80;;
12363;SDS011;6246;50.826;4.712;2023-05-10T09:51:29;1.40;;;1.30;;
12363;SDS011;6246;50.826;4.712;2023-05-10T09:54:14;1.07;;;1.07;;
12363;SDS011;6246;50.826;4.712;2023-05-10T09:56:40;0.93;;;0.93;;
12363;SDS011;6246;50.826;4.712;2023-05-10T09:59:10;1.00;;;1.00;;
12363;SDS011;6246;50.826;4.712;2023-05-10T10:01:37;1.10;;;1.00;;
12363;SDS011;6246;50.826;4.712;2023-05-10T10:04:06;1.07;;;1.00;;
12363;SDS011;6246;50.826;4.712;2023-05-10T10:06:36;1.10;;;1.10;;
12363;SDS011;6246;50.826;4.712;2023-05-10T10:09:03;1.20;;;1.10;;
12363;SDS011;6246;50.826;4.712;2023-05-10T10:11:29;1.00;;;1.00;;
12363;SDS011;6246;50.826;4.712;2023-05-10T10:13:55;1.17;;;1.10;;
12363;SDS011;6246;50.826;4.712;2023-05-10T10:16:21;0.97;;;0.97;;
12363;SDS011;6246;50.826;4.712;2023-05-10T10:18:47;1.10;;;1.10;;
12363;SDS011;6246;50.826;4.712;2023-05-10T10:21:14;1.37;;;1.27;;
12363;SDS011;6246;50.826;4.712;2023-05-10T10:23:41;0.87;;;0.87;;
12363;SDS011;6246;50.826;4.712;2023-05-10T10:26:08;1.00;;;0.90;;
12363;SDS011;6246;50.826;4.712;2023-05-10T10:28:45;0.93;;;0.93;;
12363;SDS011;6246;50.826;4.712;2023-05-10T10:31:36;1.30;;;1.20;;
12363;SDS011;6246;50.826;4.712;2023-05-10T10:34:04;1.00;;;0.83;;
12363;SDS011;6246;50.826;4.712;2023-05-10T10:36:32;1.40;;;1.30;;
12363;SDS011;6246;50.826;4.712;2023-05-10T10:39:02;0.80;;;0.80;;
12363;SDS011;6246;50.826;4.712;2023-05-10T10:41:34;0.83;;;0.80;;
12363;SDS011;6246;50.826;4.712;2023-05-10T10:44:22;0.83;;;0.83;;
12363;SDS011;6246;50.826;4.712;2023-05-10T11:03:11;1.43;;;0.97;;
12363;SDS011;6246;50.826;4.712;2023-05-10T11:05:46;1.37;;;1.03;;
12363;SDS011;6246;50.826;4.712;2023-05-10T11:08:14;1.63;;;1.20;;
12363;SDS011;6246;50.826;4.712;2023-05-10T11:10:48;1.07;;;0.90;;
12363;SDS011;6246;50.826;4.712;2023-05-10T11:13:16;0.90;;;0.90;;
12363;SDS011;6246;50.826;4.712;2023-05-10T11:15:52;1.53;;;1.30;;
12363;SDS011;6246;50.826;4.712;2023-05-10T11:18:28;0.80;;;0.80;;
12363;SDS011;6246;50.826;4.712;2023-05-10T11:20:58;1.00;;;0.90;;
12363;SDS011;6246;50.826;4.712;2023-05-10T11:24:12;1.60;;;0.80;;
12363;SDS011;6246;50.826;4.712;2023-05-10T11:26:11;0.87;;;0.87;;
12363;SDS011;6246;50.826;4.712;2023-05-10T11:28:47;0.90;;;0.90;;
12363;SDS011;6246;50.826;4.712;2023-05-10T11:31:13;1.57;;;1.10;;
12363;SDS011;6246;50.826;4.712;2023-05-10T11:33:47;1.10;;;1.00;;
12363;SDS011;6246;50.826;4.712;2023-05-10T11:36:20;0.80;;;0.70;;
12363;SDS011;6246;50.826;4.712;2023-05-10T11:38:46;1.00;;;1.00;;
12363;SDS011;6246;50.826;4.712;2023-05-10T11:41:13;0.87;;;0.83;;
12363;SDS011;6246;50.826;4.712;2023-05-10T11:43:39;0.77;;;0.77;;
12363;SDS011;6246;50.826;4.712;2023-05-10T11:46:12;1.20;;;1.03;;
12363;SDS011;6246;50.826;4.712;2023-05-10T11:48:39;0.80;;;0.80;;
12363;SDS011;6246;50.826;4.712;2023-05-10T11:51:06;0.70;;;0.70;;
12363;SDS011;6246;50.826;4.712;2023-05-10T11:53:32;0.70;;;0.70;;
12363;SDS011;6246;50.826;4.712;2023-05-10T11:56:08;1.67;;;1.20;;
12363;SDS011;6246;50.826;4.712;2023-05-10T11:58:35;0.80;;;0.80;;
12363;SDS011;6246;50.826;4.712;2023-05-10T12:01:01;0.60;;;0.60;;
12363;SDS011;6246;50.826;4.712;2023-05-10T12:03:28;0.83;;;0.77;;
12363;SDS011;6246;50.826;4.712;2023-05-10T12:05:54;0.77;;;0.77;;
12363;SDS011;6246;50.826;4.712;2023-05-10T12:08:24;1.50;;;0.73;;
12363;SDS011;6246;50.826;4.712;2023-05-10T12:10:51;0.80;;;0.80;;
12363;SDS011;6246;50.826;4.712;2023-05-10T12:13:17;0.60;;;0.50;;
12363;SDS011;6246;50.826;4.712;2023-05-10T12:15:45;1.13;;;1.07;;
12363;SDS011;6246;50.826;4.712;2023-05-10T12:18:14;0.70;;;0.70;;
12363;SDS011;6246;50.826;4.712;2023-05-10T12:20:40;1.00;;;0.90;;
12363;SDS011;6246;50.826;4.712;2023-05-10T12:23:08;0.70;;;0.70;;
12363;SDS011;6246;50.826;4.712;2023-05-10T12:25:34;1.00;;;0.87;;
12363;SDS011;6246;50.826;4.712;2023-05-10T12:28:04;0.60;;;0.60;;
12363;SDS011;6246;50.826;4.712;2023-05-10T12:30:31;0.60;;;0.60;;
12363;SDS011;6246;50.826;4.712;2023-05-10T12:33:07;0.70;;;0.70;;
12363;SDS011;6246;50.826;4.712;2023-05-10T12:35:42;0.80;;;0.80;;
12363;SDS011;6246;50.826;4.712;2023-05-10T12:40:58;0.77;;;0.77;;
12363;SDS011;6246;50.826;4.712;2023-05-10T12:43:25;0.50;;;0.50;;
12363;SDS011;6246;50.826;4.712;2023-05-10T12:45:51;1.00;;;0.50;;
12363;SDS011;6246;50.826;4.712;2023-05-10T12:48:17;0.50;;;0.50;;
12363;SDS011;6246;50.826;4.712;2023-05-10T12:50:43;0.60;;;0.60;;
12363;SDS011;6246;50.826;4.712;2023-05-10T12:53:09;0.60;;;0.60;;
12363;SDS011;6246;50.826;4.712;2023-05-10T12:55:35;0.63;;;0.63;;
12363;SDS011;6246;50.826;4.712;2023-05-10T12:58:01;0.67;;;0.67;;
12363;SDS011;6246;50.826;4.712;2023-05-10T13:00:27;0.70;;;0.70;;
12363;SDS011;6246;50.826;4.712;2023-05-10T13:02:53;0.70;;;0.70;;
12363;SDS011;6246;50.826;4.712;2023-05-10T13:05:19;0.60;;;0.60;;
12363;SDS011;6246;50.826;4.712;2023-05-10T13:07:45;0.53;;;0.53;;
12363;SDS011;6246;50.826;4.712;2023-05-10T13:10:11;0.60;;;0.60;;
12363;SDS011;6246;50.826;4.712;2023-05-10T13:12:37;0.60;;;0.60;;
12363;SDS011;6246;50.826;4.712;2023-05-10T13:15:03;0.50;;;0.50;;
12363;SDS011;6246;50.826;4.712;2023-05-10T13:17:30;0.50;;;0.50;;
12363;SDS011;6246;50.826;4.712;2023-05-10T13:19:56;0.60;;;0.60;;
12363;SDS011;6246;50.826;4.712;2023-05-10T13:22:22;0.60;;;0.60;;
12363;SDS011;6246;50.826;4.712;2023-05-10T13:24:48;0.50;;;0.50;;
12363;SDS011;6246;50.826;4.712;2023-05-10T13:27:14;0.83;;;0.73;;
12363;SDS011;6246;50.826;4.712;2023-05-10T13:29:40;0.73;;;0.73;;
12363;SDS011;6246;50.826;4.712;2023-05-10T13:32:06;0.60;;;0.60;;
12363;SDS011;6246;50.826;4.712;2023-05-10T13:34:32;0.50;;;0.50;;
12363;SDS011;6246;50.826;4.712;2023-05-10T13:37:00;0.77;;;0.70;;
12363;SDS011;6246;50.826;4.712;2023-05-10T13:39:26;0.73;;;0.73;;
12363;SDS011;6246;50.826;4.712;2023-05-10T13:41:54;0.50;;;0.50;;
12363;SDS011;6246;50.826;4.712;2023-05-10T13:44:20;1.47;;;0.80;;
12363;SDS011;6246;50.826;4.712;2023-05-10T13:46:46;0.67;;;0.67;;
12363;SDS011;6246;50.826;4.712;2023-05-10T13:49:13;0.67;;;0.60;;
12363;SDS011;6246;50.826;4.712;2023-05-10T13:51:39;0.70;;;0.70;;
12363;SDS011;6246;50.826;4.712;2023-05-10T13:54:05;0.43;;;0.43;;
12363;SDS011;6246;50.826;4.712;2023-05-10T13:56:31;0.60;;;0.60;;
12363;SDS011;6246;50.826;4.712;2023-05-10T13:58:57;0.50;;;0.50;;
12363;SDS011;6246;50.826;4.712;2023-05-10T14:01:23;0.60;;;0.60;;
12363;SDS011;6246;50.826;4.712;2023-05-10T14:03:49;0.50;;;0.50;;
12363;SDS011;6246;50.826;4.712;2023-05-10T14:06:15;0.57;;;0.57;;
12363;SDS011;6246;50.826;4.712;2023-05-10T14:08:42;1.30;;;0.63;;
12363;SDS011;6246;50.826;4.712;2023-05-10T14:11:08;0.33;;;0.33;;
12363;SDS011;6246;50.826;4.712;2023-05-10T14:13:34;0.40;;;0.40;;
12363;SDS011;6246;50.826;4.712;2023-05-10T14:16:00;0.50;;;0.50;;
12363;SDS011;6246;50.826;4.712;2023-05-10T14:18:26;0.50;;;0.50;;
12363;SDS011;6246;50.826;4.712;2023-05-10T14:20:53;0.60;;;0.60;;
12363;SDS011;6246;50.826;4.712;2023-05-10T14:23:20;0.80;;;0.67;;
12363;SDS011;6246;50.826;4.712;2023-05-10T14:25:49;1.00;;;0.87;;
12363;SDS011;6246;50.826;4.712;2023-05-10T14:28:15;0.97;;;0.67;;
12363;SDS011;6246;50.826;4.712;2023-05-10T14:30:42;0.50;;;0.50;;
12363;SDS011;6246;50.826;4.712;2023-05-10T14:33:08;0.50;;;0.50;;
12363;SDS011;6246;50.826;4.712;2023-05-10T14:35:34;0.60;;;0.60;;
12363;SDS011;6246;50.826;4.712;2023-05-10T14:38:01;0.60;;;0.60;;
12363;SDS011;6246;50.826;4.712;2023-05-10T14:40:30;0.63;;;0.53;;
12363;SDS011;6246;50.826;4.712;2023-05-10T14:42:56;0.50;;;0.50;;
12363;SDS011;6246;50.826;4.712;2023-05-10T14:45:23;0.90;;;0.70;;
12363;SDS011;6246;50.826;4.712;2023-05-10T14:47:49;0.73;;;0.47;;
12363;SDS011;6246;50.826;4.712;2023-05-10T14:50:15;0.50;;;0.50;;
12363;SDS011;6246;50.826;4.712;2023-05-10T14:52:42;0.60;;;0.60;;
12363;SDS011;6246;50.826;4.712;2023-05-10T14:55:09;0.60;;;0.60;;
12363;SDS011;6246;50.826;4.712;2023-05-10T14:57:35;0.87;;;0.60;;
12363;SDS011;6246;50.826;4.712;2023-05-10T15:00:01;0.70;;;0.70;;
12363;SDS011;6246;50.826;4.712;2023-05-10T15:02:27;0.80;;;0.80;;
12363;SDS011;6246;50.826;4.712;2023-05-10T15:04:53;0.57;;;0.57;;
12363;SDS011;6246;50.826;4.712;2023-05-10T15:07:19;0.60;;;0.60;;
12363;SDS011;6246;50.826;4.712;2023-05-10T15:09:45;0.60;;;0.60;;
12363;SDS011;6246;50.826;4.712;2023-05-10T15:12:11;0.60;;;0.60;;
12363;SDS011;6246;50.826;4.712;2023-05-10T15:14:37;0.77;;;0.77;;
12363;SDS011;6246;50.826;4.712;2023-05-10T15:17:05;0.83;;;0.83;;
12363;SDS011;6246;50.826;4.712;2023-05-10T15:19:32;0.80;;;0.80;;
12363;SDS011;6246;50.826;4.712;2023-05-10T15:21:58;0.50;;;0.47;;
12363;SDS011;6246;50.826;4.712;2023-05-10T15:24:24;0.50;;;0.50;;
12363;SDS011;6246;50.826;4.712;2023-05-10T15:26:50;0.53;;;0.53;;
12363;SDS011;6246;50.826;4.712;2023-05-10T15:29:16;0.70;;;0.60;;